createdAt,value
2022-12-22T00:01:09.529Z,2.13
2022-12-22T00:03:48.191Z,2.10
2022-12-22T00:06:28.517Z,2.23
2022-12-22T00:09:06.216Z,2.73
2022-12-22T00:11:43.856Z,2.60
2022-12-22T00:14:22.666Z,2.23
2022-12-22T00:16:59.569Z,2.60
2022-12-22T00:19:37.581Z,2.30
2022-12-22T00:22:16.722Z,2.30
2022-12-22T00:24:53.413Z,2.77
2022-12-22T00:27:45.934Z,2.77
2022-12-22T00:30:25.412Z,2.40
2022-12-22T00:33:03.669Z,2.30
2022-12-22T00:35:42.250Z,2.77
2022-12-22T00:38:42.959Z,2.10
2022-12-22T00:41:19.859Z,2.60
2022-12-22T00:43:56.985Z,2.47
2022-12-22T00:46:34.942Z,2.43
2022-12-22T00:49:12.871Z,2.70
2022-12-22T00:51:48.870Z,2.93
2022-12-22T00:54:27.789Z,2.47
2022-12-22T00:57:04.622Z,2.73
2022-12-22T00:59:40.998Z,2.07
2022-12-22T01:02:20.091Z,2.30
2022-12-22T01:04:57.040Z,2.33
2022-12-22T01:07:39.441Z,2.17
2022-12-22T01:10:18.525Z,2.50
2022-12-22T01:12:56.974Z,2.70
2022-12-22T01:15:35.313Z,2.77
2022-12-22T01:18:14.815Z,2.73
2022-12-22T01:20:50.813Z,2.03
2022-12-22T01:23:26.716Z,2.23
2022-12-22T01:26:02.951Z,1.80
2022-12-22T01:28:41.094Z,2.00
2022-12-22T01:31:24.779Z,1.90
2022-12-22T01:34:02.029Z,2.23
2022-12-22T01:36:38.895Z,1.93
2022-12-22T01:39:15.390Z,2.10
2022-12-22T01:41:51.765Z,1.70
2022-12-22T01:44:28.236Z,1.77
2022-12-22T01:47:30.417Z,2.00
2022-12-22T01:50:08.379Z,2.60
2022-12-22T01:52:45.803Z,2.10
2022-12-22T01:55:25.003Z,2.30
2022-12-22T01:58:04.737Z,2.13
2022-12-22T02:00:41.769Z,2.23
2022-12-22T02:03:23.987Z,1.97
2022-12-22T02:06:06.864Z,2.17
2022-12-22T02:08:48.430Z,2.20
2022-12-22T02:11:32.658Z,2.23
2022-12-22T02:14:14.003Z,1.90
2022-12-22T02:16:55.999Z,1.70
2022-12-22T02:19:44.241Z,2.20
2022-12-22T02:22:28.395Z,1.93
2022-12-22T02:25:07.823Z,2.67
2022-12-22T02:27:47.334Z,2.20
2022-12-22T02:30:25.012Z,1.83
2022-12-22T02:33:09.445Z,1.90
2022-12-22T02:35:51.290Z,2.23
2022-12-22T02:38:32.786Z,2.53
2022-12-22T02:41:15.226Z,1.80
2022-12-22T02:44:02.158Z,2.50
2022-12-22T02:46:43.749Z,2.17
2022-12-22T02:49:25.854Z,2.37
2022-12-22T02:52:08.514Z,2.33
2022-12-22T02:54:46.499Z,2.50
2022-12-22T02:57:26.452Z,2.67
2022-12-22T03:00:05.609Z,2.80
2022-12-22T03:02:42.622Z,3.03
2022-12-22T03:05:20.035Z,2.63
2022-12-22T03:07:55.827Z,2.63
2022-12-22T03:10:32.828Z,3.33
2022-12-22T03:13:10.024Z,3.23
2022-12-22T03:15:48.530Z,2.90
2022-12-22T03:18:26.555Z,3.07
2022-12-22T03:21:04.257Z,3.10
2022-12-22T03:23:41.909Z,3.67
2022-12-22T03:26:09.504Z,3.47
2022-12-22T03:28:37.118Z,3.13
2022-12-22T03:31:07.026Z,2.43
2022-12-22T03:33:34.665Z,2.70
2022-12-22T03:36:02.333Z,2.60
2022-12-22T03:38:30.017Z,2.43
2022-12-22T03:40:57.989Z,2.00
2022-12-22T03:43:36.037Z,2.03
2022-12-22T03:46:11.839Z,2.33
2022-12-22T03:48:40.763Z,1.93
2022-12-22T03:51:08.454Z,1.97
2022-12-22T03:53:36.123Z,2.53
2022-12-22T03:56:07.708Z,2.30
2022-12-22T03:58:35.932Z,2.90
2022-12-22T04:01:07.474Z,3.07
2022-12-22T04:03:35.083Z,2.80
2022-12-22T04:06:04.009Z,2.43
2022-12-22T04:08:31.643Z,2.90
2022-12-22T04:11:08.921Z,2.97
2022-12-22T04:13:36.590Z,2.73
2022-12-22T04:16:04.217Z,2.93
2022-12-22T04:18:31.823Z,2.50
2022-12-22T04:20:59.421Z,2.60
2022-12-22T04:23:28.308Z,2.73
2022-12-22T04:25:55.980Z,3.10
2022-12-22T04:28:23.810Z,2.67
2022-12-22T04:30:51.643Z,2.83
2022-12-22T04:33:19.280Z,2.53
2022-12-22T04:35:46.884Z,2.00
2022-12-22T04:38:14.487Z,1.73
2022-12-22T04:40:43.370Z,1.97
2022-12-22T04:43:10.995Z,1.77
2022-12-22T04:45:38.611Z,1.63
2022-12-22T04:48:06.572Z,1.90
2022-12-22T04:50:34.159Z,2.13
2022-12-22T04:53:01.739Z,1.90
2022-12-22T04:55:29.384Z,2.20
2022-12-22T04:57:58.215Z,2.10
2022-12-22T05:00:25.791Z,2.23
2022-12-22T05:02:53.775Z,2.40
2022-12-22T05:05:21.446Z,2.93
2022-12-22T05:07:49.080Z,1.80
2022-12-22T05:10:16.691Z,1.80
2022-12-22T05:12:54.034Z,1.90
2022-12-22T05:15:23.191Z,2.10
2022-12-22T05:17:51.159Z,2.03
2022-12-22T05:20:19.220Z,1.90
2022-12-22T05:22:47.085Z,2.00
2022-12-22T05:25:16.631Z,2.13
2022-12-22T05:27:44.310Z,2.13
2022-12-22T05:30:12.585Z,1.53
2022-12-22T05:32:41.700Z,1.60
2022-12-22T05:35:09.643Z,1.20
2022-12-22T05:37:37.191Z,1.40
2022-12-22T05:40:04.982Z,1.70
2022-12-22T05:42:39.757Z,1.50
2022-12-22T05:45:09.143Z,2.33
2022-12-22T05:47:36.936Z,1.40
2022-12-22T05:50:06.267Z,1.60
2022-12-22T05:52:33.930Z,1.67
2022-12-22T05:55:01.676Z,1.27
2022-12-22T05:57:29.288Z,1.90
2022-12-22T05:59:56.932Z,1.73
2022-12-22T06:02:24.846Z,1.37
2022-12-22T06:04:52.886Z,1.70
2022-12-22T06:07:21.815Z,1.97
2022-12-22T06:09:49.430Z,2.07
2022-12-22T06:12:17.077Z,2.33
2022-12-22T06:14:44.737Z,1.97
2022-12-22T06:17:12.293Z,2.47
2022-12-22T06:19:39.899Z,2.27
2022-12-22T06:22:07.488Z,2.00
2022-12-22T06:24:36.347Z,2.30
2022-12-22T06:27:04.103Z,2.30
2022-12-22T06:29:31.787Z,2.33
2022-12-22T06:31:59.433Z,2.60
2022-12-22T06:34:26.991Z,2.13
2022-12-22T06:36:54.587Z,2.73
2022-12-22T06:39:22.206Z,2.73
2022-12-22T06:42:02.364Z,2.57
2022-12-22T06:44:30.232Z,2.10
2022-12-22T06:46:57.879Z,1.50
2022-12-22T06:49:25.663Z,1.83
2022-12-22T06:51:53.630Z,1.30
2022-12-22T06:54:26.166Z,2.17
2022-12-22T06:56:55.456Z,2.27
2022-12-22T06:59:23.090Z,1.53
2022-12-22T07:01:50.775Z,1.80
2022-12-22T07:04:20.663Z,1.30
2022-12-22T07:06:48.396Z,1.37
2022-12-22T07:09:15.994Z,1.17
2022-12-22T07:11:43.638Z,1.03
2022-12-22T07:14:12.783Z,1.30
2022-12-22T07:16:40.501Z,0.90
2022-12-22T07:19:08.183Z,1.07
2022-12-22T07:21:35.763Z,1.10
2022-12-22T07:24:03.336Z,1.57
2022-12-22T07:26:31.094Z,1.00
2022-12-22T07:28:58.663Z,1.60
2022-12-22T07:31:37.462Z,1.20
2022-12-22T07:34:15.186Z,1.80
2022-12-22T07:36:42.815Z,1.10
2022-12-22T07:39:21.319Z,1.40
2022-12-22T07:41:58.356Z,1.50
2022-12-22T07:44:36.622Z,1.20
2022-12-22T07:47:05.689Z,1.30
2022-12-22T07:49:43.610Z,1.00
2022-12-22T07:52:11.259Z,1.33
2022-12-22T07:54:48.775Z,1.77
2022-12-22T07:57:27.000Z,2.33
2022-12-22T08:00:15.375Z,1.60
2022-12-22T08:02:45.980Z,1.10
2022-12-22T08:05:13.759Z,1.10
2022-12-22T08:07:41.445Z,1.70
2022-12-22T08:10:09.388Z,1.30
2022-12-22T08:12:48.466Z,1.50
2022-12-22T08:15:27.072Z,1.80
2022-12-22T08:18:06.724Z,1.57
2022-12-22T08:20:49.369Z,1.50
2022-12-22T08:23:27.817Z,1.73
2022-12-22T08:26:09.037Z,1.37
2022-12-22T08:28:38.573Z,1.50
2022-12-22T08:31:06.457Z,1.23
2022-12-22T08:33:35.633Z,1.67
2022-12-22T08:36:13.101Z,1.47
2022-12-22T08:38:42.036Z,2.20
2022-12-22T08:41:40.124Z,2.07
2022-12-22T08:44:07.859Z,2.30
2022-12-22T08:46:46.767Z,2.30
2022-12-22T08:49:16.139Z,6.40
2022-12-22T08:51:44.015Z,1.87
2022-12-22T08:54:11.907Z,2.23
2022-12-22T08:56:39.972Z,2.07
2022-12-22T08:59:08.072Z,2.20
2022-12-22T09:01:36.872Z,1.83
2022-12-22T09:04:05.028Z,2.60
2022-12-22T09:06:40.519Z,1.53
2022-12-22T09:09:10.342Z,1.97
2022-12-22T09:11:38.120Z,1.63
2022-12-22T09:14:06.407Z,1.60
2022-12-22T09:16:34.883Z,1.80
2022-12-22T09:19:03.103Z,2.40
2022-12-22T09:21:31.011Z,2.47
2022-12-22T09:24:00.155Z,2.07
2022-12-22T09:26:28.806Z,2.10
2022-12-22T09:29:14.425Z,2.90
2022-12-22T09:31:42.651Z,2.40
2022-12-22T09:34:16.803Z,2.07
2022-12-22T09:36:45.128Z,3.13
2022-12-22T09:39:14.184Z,3.20
2022-12-22T09:41:44.135Z,3.40
2022-12-22T09:44:14.672Z,2.50
2022-12-22T09:46:42.405Z,2.67
2022-12-22T09:49:13.908Z,2.30
2022-12-22T09:51:43.790Z,1.90
2022-12-22T09:54:12.201Z,1.30
2022-12-22T09:56:41.141Z,1.30
2022-12-22T09:59:11.191Z,1.20
2022-12-22T10:01:43.277Z,1.20
2022-12-22T10:04:13.903Z,1.27
2022-12-22T10:06:44.496Z,1.05
2022-12-22T10:09:46.346Z,0.90
2022-12-22T10:12:05.677Z,1.00
2022-12-22T10:14:34.858Z,0.95
2022-12-22T10:17:15.070Z,1.10
2022-12-22T10:19:42.965Z,1.05
2022-12-22T10:22:18.929Z,1.05
2022-12-22T10:24:46.537Z,1.10
2022-12-22T10:27:15.902Z,1.00
2022-12-22T10:29:43.581Z,1.00
2022-12-22T10:32:13.304Z,1.10
2022-12-22T10:34:58.076Z,1.05
2022-12-22T10:37:31.096Z,1.33
2022-12-22T10:39:58.962Z,1.30
2022-12-22T10:42:27.942Z,1.23
2022-12-22T10:44:55.588Z,1.30
2022-12-22T10:47:25.803Z,1.70
2022-12-22T10:52:30.144Z,1.70
2022-12-22T10:55:13.184Z,1.48
2022-12-22T10:57:42.083Z,1.35
2022-12-22T11:00:23.363Z,1.27
2022-12-22T11:02:52.274Z,1.08
2022-12-22T11:05:20.120Z,0.90
2022-12-22T11:07:48.187Z,1.30
2022-12-22T11:10:18.767Z,1.23
2022-12-22T11:12:56.887Z,1.15
2022-12-22T11:15:29.733Z,1.35
2022-12-22T11:18:02.663Z,1.10
2022-12-22T11:20:35.888Z,1.30
2022-12-22T11:23:07.901Z,1.35
2022-12-22T11:25:41.189Z,1.00
2022-12-22T11:28:14.969Z,1.17
2022-12-22T11:30:47.388Z,1.17
2022-12-22T11:33:22.955Z,0.95
2022-12-22T11:35:53.716Z,1.10
2022-12-22T11:38:27.868Z,1.10
2022-12-22T11:40:59.467Z,1.20
2022-12-22T11:43:34.015Z,1.02
2022-12-22T11:46:07.134Z,0.80
2022-12-22T11:48:42.925Z,0.93
2022-12-22T11:51:15.258Z,1.00
2022-12-22T11:53:51.052Z,0.93
2022-12-22T11:56:22.878Z,0.90
2022-12-22T11:59:01.934Z,0.73
2022-12-22T12:01:38.598Z,1.20
2022-12-22T12:04:16.849Z,0.60
2022-12-22T12:06:51.938Z,0.70
2022-12-22T12:09:27.290Z,0.80
2022-12-22T12:11:59.680Z,0.80
2022-12-22T12:14:31.027Z,0.70
2022-12-22T12:16:59.791Z,0.80
2022-12-22T12:19:34.743Z,0.80
2022-12-22T12:22:04.148Z,1.13
2022-12-22T12:24:40.418Z,0.68
2022-12-22T12:27:12.612Z,0.60
2022-12-22T12:30:00.400Z,0.70
2022-12-22T12:32:39.332Z,0.65
2022-12-22T12:35:09.003Z,0.80
2022-12-22T12:37:38.384Z,0.82
2022-12-22T12:40:19.397Z,0.70
2022-12-22T12:42:47.704Z,0.60
2022-12-22T12:45:26.297Z,0.88
2022-12-22T12:47:57.275Z,0.90
2022-12-22T12:50:31.658Z,0.77
2022-12-22T12:53:07.480Z,0.70
2022-12-22T12:55:37.006Z,0.80
2022-12-22T12:58:05.197Z,0.68
2022-12-22T13:00:48.794Z,0.80
2022-12-22T13:04:01.954Z,0.90
2022-12-22T13:06:33.570Z,0.63
2022-12-22T13:12:24.556Z,0.75
2022-12-22T13:14:56.090Z,0.55
2022-12-22T13:17:34.479Z,0.57
2022-12-22T13:20:02.975Z,0.68
2022-12-22T13:22:30.809Z,0.50
2022-12-22T13:25:00.239Z,0.65
2022-12-22T13:27:29.294Z,0.60
2022-12-22T13:29:57.122Z,0.60
2022-12-22T13:32:26.665Z,0.57
2022-12-22T13:35:29.749Z,0.63
2022-12-22T13:37:47.214Z,0.65
2022-12-22T13:40:15.630Z,0.50
2022-12-22T13:42:46.588Z,0.52
2022-12-22T13:45:17.142Z,0.90
2022-12-22T13:47:46.351Z,0.50
2022-12-22T13:50:23.015Z,0.60
2022-12-22T13:52:51.421Z,0.50
2022-12-22T13:55:20.566Z,0.50
2022-12-22T13:57:54.714Z,0.60
2022-12-22T14:00:26.706Z,0.50
2022-12-22T14:02:54.765Z,0.68
2022-12-22T14:05:22.614Z,0.65
2022-12-22T14:08:02.474Z,0.50
2022-12-22T14:10:33.057Z,0.70
2022-12-22T14:13:02.427Z,0.70
2022-12-22T14:15:30.112Z,0.52
2022-12-22T14:17:57.708Z,0.50
2022-12-22T14:20:26.999Z,0.50
2022-12-22T14:22:57.568Z,0.63
2022-12-22T14:25:28.187Z,0.93
2022-12-22T14:27:57.212Z,0.60
2022-12-22T14:30:28.536Z,0.60
2022-12-22T14:33:15.175Z,0.60
2022-12-22T14:35:42.963Z,0.70
2022-12-22T14:38:20.293Z,0.70
2022-12-22T14:40:52.643Z,0.77
2022-12-22T14:43:26.642Z,0.80
2022-12-22T14:46:02.576Z,0.68
2022-12-22T14:48:32.716Z,0.90
2022-12-22T14:51:00.509Z,0.77
2022-12-22T14:53:33.339Z,0.60
2022-12-22T14:56:01.095Z,0.60
2022-12-22T14:58:30.686Z,0.65
2022-12-22T15:01:13.395Z,0.68
2022-12-22T15:03:42.566Z,1.00
2022-12-22T15:06:21.184Z,0.70
2022-12-22T15:08:49.180Z,0.85
2022-12-22T15:11:17.868Z,0.60
2022-12-22T15:13:45.996Z,0.70
2022-12-22T15:16:14.205Z,0.82
2022-12-22T15:18:43.288Z,0.75
2022-12-22T15:21:13.376Z,1.00
2022-12-22T15:23:41.011Z,0.80
2022-12-22T15:26:08.897Z,0.93
2022-12-22T15:28:36.457Z,1.02
2022-12-22T15:31:04.895Z,1.00
2022-12-22T15:33:32.620Z,1.10
2022-12-22T15:36:03.081Z,1.23
2022-12-22T15:38:36.718Z,1.17
2022-12-22T15:41:06.471Z,0.90
2022-12-22T15:46:24.505Z,1.10
2022-12-22T15:48:52.202Z,1.08
2022-12-22T15:51:25.575Z,0.95
2022-12-22T15:53:55.005Z,1.00
2022-12-22T15:56:24.918Z,1.00
2022-12-22T15:58:52.958Z,1.00
2022-12-22T16:01:20.852Z,0.80
2022-12-22T16:03:48.641Z,1.10
2022-12-22T16:06:17.426Z,0.93
2022-12-22T16:08:49.438Z,0.70
2022-12-22T16:11:18.227Z,0.90
2022-12-22T16:13:46.250Z,1.00
2022-12-22T16:16:13.985Z,0.95
2022-12-22T16:18:41.680Z,1.05
2022-12-22T16:21:12.976Z,0.90
2022-12-22T16:23:41.894Z,1.90
2022-12-22T16:26:29.623Z,1.00
2022-12-22T16:28:58.257Z,1.80
2022-12-22T16:31:26.451Z,1.88
2022-12-22T16:33:54.353Z,1.35
2022-12-22T16:36:21.974Z,1.02
2022-12-22T16:38:49.874Z,1.08
2022-12-22T16:41:19.873Z,1.23
2022-12-22T16:43:49.076Z,1.17
2022-12-22T16:46:17.890Z,1.10
2022-12-22T16:48:47.407Z,1.00
2022-12-22T16:51:18.218Z,1.20
2022-12-22T16:53:45.844Z,1.05
2022-12-22T16:56:15.481Z,1.00
2022-12-22T16:58:43.067Z,1.13
2022-12-22T17:01:19.677Z,1.15
2022-12-22T17:03:47.408Z,0.98
2022-12-22T17:06:15.248Z,0.90
2022-12-22T17:08:44.272Z,0.90
2022-12-22T17:11:17.919Z,1.13
2022-12-22T17:13:45.601Z,1.15
2022-12-22T17:16:19.378Z,1.40
2022-12-22T17:18:47.464Z,1.13
2022-12-22T17:21:15.552Z,1.20
2022-12-22T17:23:44.398Z,0.85
2022-12-22T17:26:13.692Z,1.00
2022-12-22T17:28:41.721Z,0.90
2022-12-22T17:31:13.343Z,0.90
2022-12-22T17:33:42.282Z,0.80
2022-12-22T17:36:18.573Z,1.10
2022-12-22T17:38:46.592Z,1.00
2022-12-22T17:41:16.997Z,1.13
2022-12-22T17:43:45.234Z,0.75
2022-12-22T17:46:14.691Z,0.90
2022-12-22T17:48:43.908Z,0.98
2022-12-22T17:51:16.301Z,0.80
2022-12-22T17:53:44.342Z,1.13
2022-12-22T17:56:14.721Z,1.00
2022-12-22T17:58:43.343Z,0.90
2022-12-22T18:01:19.570Z,1.00
2022-12-22T18:03:48.851Z,1.00
2022-12-22T18:06:18.178Z,1.05
2022-12-22T18:08:46.111Z,1.10
2022-12-22T18:11:13.850Z,1.00
2022-12-22T18:13:41.913Z,1.60
2022-12-22T18:16:13.619Z,1.42
2022-12-22T18:18:41.427Z,1.95
2022-12-22T18:21:13.585Z,1.60
2022-12-22T18:23:49.334Z,1.60
2022-12-22T18:26:20.500Z,1.27
2022-12-22T18:28:48.110Z,1.92
2022-12-22T18:31:15.819Z,1.30
2022-12-22T18:33:43.539Z,1.45
2022-12-22T18:36:16.087Z,1.40
2022-12-22T18:44:17.290Z,1.20
2022-12-22T18:46:45.124Z,1.27
2022-12-22T18:49:12.784Z,1.10
2022-12-22T18:51:42.797Z,0.90
2022-12-22T18:54:20.522Z,0.85
2022-12-22T18:56:51.413Z,1.10
2022-12-22T18:59:23.076Z,1.05
2022-12-22T19:01:51.140Z,1.40
2022-12-22T19:04:18.944Z,1.50
2022-12-22T19:06:47.960Z,1.42
2022-12-22T19:09:15.789Z,1.40
2022-12-22T19:11:43.984Z,1.40
2022-12-22T19:14:17.415Z,2.55
2022-12-22T19:16:45.358Z,6.65
2022-12-22T19:19:16.855Z,6.65
2022-12-22T19:21:44.589Z,2.30
2022-12-22T19:24:13.501Z,2.00
2022-12-22T19:26:41.854Z,1.60
2022-12-22T19:29:12.338Z,1.50
2022-12-22T19:31:40.304Z,1.45
2022-12-22T19:34:15.233Z,1.30
2022-12-22T19:36:42.824Z,1.40
2022-12-22T19:39:10.703Z,1.50
2022-12-22T19:41:41.815Z,1.63
2022-12-22T19:44:18.774Z,1.52
2022-12-22T19:46:46.734Z,1.35
2022-12-22T19:49:15.998Z,1.48
2022-12-22T19:51:43.706Z,1.80
2022-12-22T19:54:11.392Z,1.40
2022-12-22T19:56:39.057Z,1.60
2022-12-22T19:59:09.464Z,1.45
2022-12-22T20:01:37.223Z,1.30
2022-12-22T20:04:04.914Z,1.90
2022-12-22T20:06:32.571Z,1.60
2022-12-22T20:09:03.098Z,1.40
2022-12-22T20:11:30.767Z,2.17
2022-12-22T20:13:58.358Z,1.38
2022-12-22T20:16:27.364Z,1.85
2022-12-22T20:18:55.010Z,1.90
2022-12-22T20:21:25.270Z,1.58
2022-12-22T20:26:38.947Z,2.00
2022-12-22T20:29:06.553Z,1.80
2022-12-22T20:31:35.540Z,1.95
2022-12-22T20:34:03.253Z,2.38
2022-12-22T20:36:31.851Z,1.83
2022-12-22T20:39:00.528Z,2.25
2022-12-22T20:41:28.768Z,2.05
2022-12-22T20:43:56.512Z,2.95
2022-12-22T20:46:25.982Z,2.65
2022-12-22T20:48:56.128Z,1.92
2022-12-22T20:51:24.958Z,2.28
2022-12-22T20:53:53.205Z,1.75
2022-12-22T20:56:22.867Z,3.27
2022-12-22T20:58:50.919Z,2.47
2022-12-22T21:01:18.634Z,1.73
2022-12-22T21:03:46.500Z,1.40
2022-12-22T21:06:22.857Z,1.43
2022-12-22T21:08:50.708Z,1.40
2022-12-22T21:11:18.440Z,1.30
2022-12-22T21:13:46.264Z,1.30
2022-12-22T21:16:15.260Z,1.50
2022-12-22T21:18:43.380Z,1.47
2022-12-22T21:21:11.423Z,1.50
2022-12-22T21:23:40.343Z,1.20
2022-12-22T21:26:16.451Z,0.97
2022-12-22T21:28:44.085Z,1.30
2022-12-22T21:31:11.747Z,1.00
2022-12-22T21:33:39.404Z,1.13
2022-12-22T21:36:13.837Z,1.20
2022-12-22T21:38:42.732Z,1.10
2022-12-22T21:41:10.334Z,1.30
2022-12-22T21:43:37.902Z,1.27
2022-12-22T21:46:06.304Z,1.40
2022-12-22T21:48:34.999Z,1.40
2022-12-22T21:51:02.561Z,1.60
2022-12-22T21:53:30.183Z,1.33
2022-12-22T21:55:59.107Z,1.53
2022-12-22T21:58:26.737Z,1.83
2022-12-22T22:00:54.343Z,1.60
2022-12-22T22:03:21.936Z,1.73
2022-12-22T22:05:49.602Z,1.60
2022-12-22T22:08:17.219Z,1.23
2022-12-22T22:10:44.862Z,1.80
2022-12-22T22:13:15.910Z,1.63
2022-12-22T22:15:44.100Z,1.53
2022-12-22T22:18:15.427Z,1.53
2022-12-22T22:20:43.307Z,1.50
2022-12-22T22:23:12.336Z,1.40
2022-12-22T22:25:40.063Z,1.50
2022-12-22T22:28:07.764Z,1.30
2022-12-22T22:30:36.642Z,1.23
2022-12-22T22:33:04.256Z,1.30
2022-12-22T22:35:31.930Z,1.50
2022-12-22T22:37:59.544Z,1.43
2022-12-22T22:40:27.159Z,1.30
2022-12-22T22:42:56.748Z,1.47
2022-12-22T22:45:24.538Z,1.10
2022-12-22T22:47:53.870Z,1.20
2022-12-22T22:50:22.311Z,1.10
2022-12-22T22:52:49.904Z,0.97
2022-12-22T22:55:17.542Z,1.17
2022-12-22T22:57:45.160Z,0.90
2022-12-22T23:00:14.145Z,1.40
2022-12-22T23:02:41.946Z,1.20
2022-12-22T23:05:15.552Z,1.10
2022-12-22T23:07:48.189Z,1.30
2022-12-22T23:10:15.846Z,1.43
2022-12-22T23:12:43.445Z,1.13
2022-12-22T23:15:11.118Z,1.20
2022-12-22T23:17:38.720Z,1.23
2022-12-22T23:20:07.073Z,0.97
2022-12-22T23:22:36.036Z,1.20
2022-12-22T23:25:03.696Z,1.10
2022-12-22T23:27:31.412Z,0.83
2022-12-22T23:29:59.063Z,1.20
2022-12-22T23:32:26.840Z,1.00
2022-12-22T23:34:54.458Z,1.00
2022-12-22T23:37:22.057Z,1.10
2022-12-22T23:39:51.015Z,1.00
2022-12-22T23:42:18.624Z,0.93
2022-12-22T23:44:46.184Z,1.00
2022-12-22T23:47:13.832Z,1.27
2022-12-22T23:49:41.520Z,1.00
2022-12-22T23:52:09.104Z,1.20
2022-12-22T23:54:36.721Z,1.20
2022-12-22T23:57:05.675Z,1.10
2022-12-22T23:59:33.293Z,1.00
